首页
METAR-TAF:

METAR-TAF

机场 :

Volk Field Air National Guard Base

Camp Douglas, 威斯康辛州, 美国

纬度: 43-56N, 经度: 090-16W, 海拔: 277米

当前天气观测

该预报发布于3小时和46分钟前的02:56 UTC
风速5节,风向西
温度 18°C
湿度 83%
气压 1005 hPa
能見度: 16.1公里
多云层高于3000英尺
多云层高于8000英尺
多云层高于20000英尺

METAR: KVOK 250256Z 28005KT 10SM BKN030 BKN080 BKN200 18/15 A2968 RMK A02A SLPNO WND DATA ESTMD ALSTG ESTMD

时间: 01:42 (06:42 UTC)

预报

该预报发布于13小时和42分钟前的17:00 UTC
预报有效从24日的 17点(UTC)到 25日的 23点(UTC)
风速9节,风向西南
能见度10公里或以上
阴天层高于2500英尺
小阵雨
短暂存在
从 24日的 17点(UTC)到 24日的 22点(UTC)
风速10节,风向西南,有时为20节阵风
能見度: 8000
阴天层高于2000英尺, 积雨云.
雷暴, 小雨
成为
从 24日的 23点(UTC)到 24日的 24点(UTC)
风速9节,风向西转西南
能见度10公里或以上
阴天层高于2000英尺
成为
从 25日的 02点(UTC)到 25日的 03点(UTC)
风速9节,风向西
能见度10公里或以上
阴天层高于2000英尺
成为
从 25日的 08点(UTC)到 25日的 09点(UTC)
风速9节,风向西转西南
能见度10公里或以上
散云层高于2000英尺
成为
从 25日的 10点(UTC)到 25日的 11点(UTC)
风速9节,风向南转西南
能見度: 2509
少量云层高于6000英尺

TAF: KVOK 241700Z 2417/2523 22009KT 9999 -SHRA OVC025 QNH2954INS TEMPO 2417/2422 23010G20KT 8000 -TSRA OVC020CB BECMG 2423/2424 24009KT 9999 NSW OVC020 QNH2958INS BECMG 2502/2503 28009KT 9999 OVC020 QNH2964INS BECMG 2508/2509 25009KT 9999 SCT020 QNH2975INS BECMG 2510/2511 21009KT 9999 FEW060 QNH2980INS TX28/2517Z TN15/2509Z LAST NO AMDS AFT 2421 NEXT 2509

超过4000个机场的气象观测和天气预报(METAR&TAF报告)。

可查询的气象台以黄色和红色小点在地图上表示。

将鼠标移到小点上方,可查看气象台名称。

然后点击查看天气观测和预报。

如需切换地图:点击带黑十字的绿色按钮放大地图;点击带横线的绿色按钮缩小地图;或者点击绿色箭头查看邻近地区的地图。


METAR-TAF: